Time;durP1;ratioP1;P1;durP2;ratioP2;P2;SDS_P1;SDS_P2;PMS_P1;PMS_P2;Temp;Humidity;BMP_temperature;BMP_pressure;BME280_temperature;BME280_humidity;BME280_pressure;Samples;Min_cycle;Max_cycle;Signal;HPM_P1;HPM_P2
2022/02/23 00:00:21;;;;;;;4.17;3.80;;;-4.30;99.90;;;;;;6237572;28;20276;-75
2022/02/23 00:03:28;;;;;;;4.23;3.83;;;-4.30;99.90;;;;;;6237570;28;20284;-75
2022/02/23 00:06:33;;;;;;;3.83;3.60;;;-4.30;99.90;;;;;;6237512;28;20301;-74
2022/02/23 00:09:40;;;;;;;5.00;4.03;;;-4.30;99.90;;;;;;6235178;28;20297;-75
2022/02/23 00:12:45;;;;;;;6.77;4.10;;;-4.30;99.90;;;;;;6212300;28;20298;-75
2022/02/23 00:15:51;;;;;;;4.27;3.97;;;-4.30;99.90;;;;;;6213520;28;20281;-74
2022/02/23 00:18:56;;;;;;;5.13;4.10;;;-4.20;99.90;;;;;;6212777;28;20302;-75
2022/02/23 00:22:02;;;;;;;5.10;4.60;;;-4.20;99.90;;;;;;6214949;28;20278;-75
2022/02/23 00:25:10;;;;;;;6.17;3.97;;;-4.10;99.90;;;;;;6236657;28;20290;-75
2022/02/23 00:28:16;;;;;;;4.77;4.30;;;-4.20;99.90;;;;;;6261313;28;20296;-74
2022/02/23 00:31:22;;;;;;;6.00;3.87;;;-4.20;99.90;;;;;;6254144;28;20273;-74
2022/02/23 00:34:28;;;;;;;4.13;3.83;;;-4.30;99.90;;;;;;6261772;28;20471;-74
2022/02/23 00:37:34;;;;;;;4.27;3.97;;;-4.20;99.90;;;;;;6261394;28;20295;-75
2022/02/23 00:40:41;;;;;;;4.20;3.90;;;-4.30;99.90;;;;;;6263894;28;20271;-74
2022/02/23 00:43:47;;;;;;;4.27;3.87;;;-4.30;99.90;;;;;;6266365;28;20296;-75
2022/02/23 00:46:52;;;;;;;4.07;3.70;;;-4.30;99.90;;;;;;6266894;28;20294;-75
2022/02/23 00:49:57;;;;;;;4.53;3.50;;;-4.30;99.90;;;;;;6266231;28;20292;-75
2022/02/23 00:53:03;;;;;;;4.30;3.90;;;-4.30;99.90;;;;;;6265944;28;20296;-75
2022/02/23 00:56:10;;;;;;;6.13;4.20;;;-4.30;99.90;;;;;;6267211;28;20272;-74
2022/02/23 00:59:16;;;;;;;3.53;3.33;;;-4.30;99.90;;;;;;6266515;28;20308;-74
2022/02/23 01:02:21;;;;;;;3.50;3.40;;;-4.30;99.90;;;;;;6264953;28;20288;-75
2022/02/23 01:05:27;;;;;;;3.37;3.20;;;-4.30;99.90;;;;;;6265573;28;20288;-75
2022/02/23 01:08:33;;;;;;;6.13;4.17;;;-4.40;99.90;;;;;;6265744;28;20323;-74
2022/02/23 01:11:40;;;;;;;3.70;3.40;;;-4.40;99.90;;;;;;6265591;28;20268;-74
2022/02/23 01:14:45;;;;;;;5.30;3.70;;;-4.40;99.90;;;;;;6265686;28;20301;-74
2022/02/23 01:17:51;;;;;;;3.83;3.63;;;-4.40;99.90;;;;;;6265087;28;20308;-75
2022/02/23 01:20:56;;;;;;;3.43;3.23;;;-4.30;99.90;;;;;;6265938;28;20432;-74
2022/02/23 01:24:02;;;;;;;3.47;3.20;;;-4.40;99.90;;;;;;6265147;28;20605;-74
2022/02/23 01:27:09;;;;;;;3.70;3.50;;;-4.30;99.90;;;;;;6264548;28;20284;-75
2022/02/23 01:30:14;;;;;;;3.50;3.30;;;-4.30;99.90;;;;;;6266195;28;20271;-75
2022/02/23 01:33:20;;;;;;;4.07;3.43;;;-4.30;99.90;;;;;;6264825;28;20553;-74
2022/02/23 01:36:25;;;;;;;3.57;3.27;;;-4.40;99.90;;;;;;6265134;28;20453;-74
2022/02/23 01:39:30;;;;;;;3.60;3.40;;;-4.40;99.90;;;;;;6265649;28;20301;-75
2022/02/23 01:42:38;;;;;;;4.57;3.10;;;-4.40;99.90;;;;;;6264938;28;20299;-75
2022/02/23 01:45:43;;;;;;;3.83;3.50;;;-4.40;99.90;;;;;;6265147;28;20272;-75
2022/02/23 01:48:48;;;;;;;3.70;3.37;;;-4.40;99.90;;;;;;6264851;28;20296;-74
2022/02/23 01:51:54;;;;;;;3.50;3.20;;;-4.50;99.90;;;;;;6264670;28;20273;-74
2022/02/23 01:54:59;;;;;;;3.33;3.10;;;-4.40;99.90;;;;;;6289308;28;20271;-74
2022/02/23 01:58:06;;;;;;;5.13;3.03;;;-4.30;99.90;;;;;;6289639;28;20296;-75
2022/02/23 02:01:12;;;;;;;2.80;2.60;;;-4.40;99.90;;;;;;6290092;28;20272;-75
2022/02/23 02:04:21;;;;;;;5.00;3.20;;;-4.30;99.90;;;;;;6280898;28;20589;-75
2022/02/23 02:07:27;;;;;;;2.97;2.77;;;-4.30;99.90;;;;;;6289342;28;20300;-75
2022/02/23 02:10:32;;;;;;;2.40;2.30;;;-4.20;99.90;;;;;;6289352;28;20421;-74
2022/02/23 02:13:39;;;;;;;2.60;2.40;;;-4.20;99.90;;;;;;6288810;28;20429;-74
2022/02/23 02:16:44;;;;;;;3.07;2.83;;;-4.20;99.90;;;;;;6289322;28;20274;-75
2022/02/23 02:19:52;;;;;;;4.73;2.60;;;-4.10;99.90;;;;;;6288870;28;20295;-75
2022/02/23 02:22:58;;;;;;;3.97;3.40;;;-4.00;99.90;;;;;;6278260;28;20301;-75
2022/02/23 02:26:04;;;;;;;2.90;2.57;;;-4.00;99.90;;;;;;6264434;28;20276;-74
2022/02/23 02:29:10;;;;;;;2.93;2.73;;;-4.00;99.90;;;;;;6263068;28;20299;-75
2022/02/23 02:32:17;;;;;;;3.53;3.23;;;-3.90;99.90;;;;;;6263068;28;20477;-75
2022/02/23 02:35:23;;;;;;;2.97;2.77;;;-3.90;99.90;;;;;;6263838;28;20288;-75
2022/02/23 02:38:30;;;;;;;3.10;2.90;;;-3.90;99.90;;;;;;6263384;28;20301;-74
2022/02/23 02:41:35;;;;;;;2.57;2.37;;;-3.90;99.90;;;;;;6263365;28;20292;-75
2022/02/23 02:44:41;;;;;;;2.70;2.60;;;-3.90;99.90;;;;;;6263213;28;20609;-75
2022/02/23 02:47:46;;;;;;;3.53;2.60;;;-3.80;99.90;;;;;;6262704;28;20316;-75
2022/02/23 02:50:51;;;;;;;2.37;2.27;;;-3.80;99.90;;;;;;6263222;28;20272;-75
2022/02/23 02:53:58;;;;;;;2.70;2.60;;;-3.70;99.90;;;;;;6263032;28;20296;-75
2022/02/23 02:57:05;;;;;;;3.73;2.63;;;-3.70;99.90;;;;;;6263467;28;20273;-75
2022/02/23 03:00:14;;;;;;;2.97;2.87;;;-3.70;99.90;;;;;;6262997;28;20275;-75
2022/02/23 03:03:20;;;;;;;3.13;2.80;;;-3.70;99.90;;;;;;6262113;28;20297;-75
2022/02/23 03:06:25;;;;;;;2.60;2.40;;;-3.60;99.90;;;;;;6263762;28;20272;-75
2022/02/23 03:09:32;;;;;;;2.67;2.47;;;-3.60;99.90;;;;;;6263354;28;20459;-75
2022/02/23 03:12:38;;;;;;;2.73;2.63;;;-3.60;99.90;;;;;;6263087;28;20444;-75
2022/02/23 03:15:46;;;;;;;2.50;2.40;;;-3.50;99.90;;;;;;6262921;28;20272;-74
2022/02/23 03:18:51;;;;;;;4.83;2.70;;;-3.40;99.90;;;;;;6262945;28;20577;-74
2022/02/23 03:21:57;;;;;;;2.87;2.60;;;-3.30;99.90;;;;;;6263050;28;20295;-75
2022/02/23 03:25:04;;;;;;;2.90;2.70;;;-3.30;99.90;;;;;;6261829;28;20297;-74
2022/02/23 03:28:14;;;;;;;2.27;2.17;;;-3.20;99.90;;;;;;6263051;28;20298;-75
2022/02/23 03:31:19;;;;;;;2.83;2.53;;;-3.20;99.90;;;;;;6262269;28;20272;-75
2022/02/23 03:34:24;;;;;;;2.50;2.30;;;-3.20;99.90;;;;;;6261965;28;20298;-75
2022/02/23 03:37:29;;;;;;;2.70;2.60;;;-3.20;99.90;;;;;;6261632;28;20313;-75
2022/02/23 03:40:37;;;;;;;2.97;2.80;;;-3.20;99.90;;;;;;6262925;28;20278;-75
2022/02/23 03:43:43;;;;;;;2.80;2.70;;;-3.10;99.90;;;;;;6262013;28;20491;-75
2022/02/23 03:46:48;;;;;;;5.07;2.90;;;-3.10;99.90;;;;;;6262948;28;20293;-74
2022/02/23 03:49:54;;;;;;;2.60;2.50;;;-3.10;99.90;;;;;;6261959;28;20304;-74
2022/02/23 03:52:59;;;;;;;3.20;2.80;;;-3.10;99.90;;;;;;6262011;28;20492;-75
2022/02/23 03:56:38;;;;;;;2.80;2.70;;;-3.10;99.90;;;;;;6262093;28;20273;-75
2022/02/23 03:59:32;;;;;;;2.90;2.70;;;-3.00;99.90;;;;;;6262182;28;20307;-75
2022/02/23 04:02:38;;;;;;;2.47;2.37;;;-3.00;99.90;;;;;;6270445;28;20290;-75
2022/02/23 04:05:44;;;;;;;2.80;2.70;;;-3.00;99.90;;;;;;6261816;28;20265;-75
2022/02/23 04:08:49;;;;;;;2.80;2.60;;;-3.00;99.90;;;;;;6261152;28;20302;-73
2022/02/23 04:11:56;;;;;;;3.43;3.00;;;-3.00;99.90;;;;;;6261792;28;20268;-74
2022/02/23 04:15:01;;;;;;;2.83;2.60;;;-3.00;99.90;;;;;;6261609;28;20283;-73
2022/02/23 04:18:08;;;;;;;3.27;2.87;;;-2.90;99.90;;;;;;6261831;28;20301;-73
2022/02/23 04:21:14;;;;;;;2.93;2.73;;;-2.90;99.90;;;;;;6237725;28;20274;-73
2022/02/23 04:24:20;;;;;;;2.70;2.60;;;-2.90;99.90;;;;;;6236462;28;20310;-74
2022/02/23 04:27:27;;;;;;;2.83;2.73;;;-2.90;99.90;;;;;;6237284;28;20391;-74
2022/02/23 04:30:32;;;;;;;3.03;2.83;;;-2.90;99.90;;;;;;6237438;28;20297;-74
2022/02/23 04:33:39;;;;;;;3.03;2.87;;;-2.90;99.90;;;;;;6236829;28;20303;-74
2022/02/23 04:36:46;;;;;;;2.90;2.80;;;-2.90;99.90;;;;;;6250099;28;20267;-74
2022/02/23 04:40:05;;;;;;;3.53;2.87;;;-2.90;99.90;;;;;;6260405;28;20280;-74
2022/02/23 04:43:12;;;;;;;2.60;2.60;;;-2.90;99.90;;;;;;6261815;28;20319;-73
2022/02/23 04:46:17;;;;;;;3.20;2.90;;;-2.80;99.90;;;;;;6261506;28;20274;-73
2022/02/23 04:49:22;;;;;;;3.37;3.10;;;-2.80;99.90;;;;;;6261818;28;20336;-74
2022/02/23 04:52:27;;;;;;;3.50;2.67;;;-2.70;99.90;;;;;;6261558;28;20294;-73
2022/02/23 04:55:35;;;;;;;2.87;2.73;;;-2.70;99.90;;;;;;6262140;28;20278;-73
2022/02/23 04:58:42;;;;;;;4.27;2.80;;;-2.70;99.90;;;;;;6261237;28;20306;-74
2022/02/23 05:01:47;;;;;;;5.33;3.03;;;-2.70;99.90;;;;;;6261716;28;20273;-73
2022/02/23 05:04:52;;;;;;;2.80;2.70;;;-2.70;99.90;;;;;;6261009;28;20301;-74
2022/02/23 05:07:57;;;;;;;3.17;2.97;;;-2.70;99.90;;;;;;6261248;28;20617;-75
2022/02/23 05:11:03;;;;;;;2.73;2.63;;;-2.70;99.90;;;;;;6260979;28;20544;-74
2022/02/23 05:14:11;;;;;;;3.10;2.90;;;-2.70;99.90;;;;;;6260913;28;20311;-73
2022/02/23 05:17:16;;;;;;;2.80;2.70;;;-2.70;99.90;;;;;;6261005;28;20293;-74
2022/02/23 05:20:21;;;;;;;2.93;2.90;;;-2.60;99.90;;;;;;6261050;28;20273;-74
2022/02/23 05:23:28;;;;;;;3.43;2.77;;;-2.60;99.90;;;;;;6274978;28;20488;-74
2022/02/23 05:26:34;;;;;;;3.37;3.17;;;-2.60;99.90;;;;;;6286857;28;20273;-74
2022/02/23 05:29:43;;;;;;;3.13;2.80;;;-2.60;99.90;;;;;;6290611;28;20584;-74
2022/02/23 05:32:49;;;;;;;2.70;2.60;;;-2.60;99.90;;;;;;6290017;28;20298;-74
2022/02/23 05:35:54;;;;;;;2.93;2.77;;;-2.50;99.90;;;;;;6290141;28;20274;-73
2022/02/23 05:38:59;;;;;;;3.00;2.77;;;-2.50;99.90;;;;;;6289787;28;20298;-74
2022/02/23 05:42:05;;;;;;;3.07;2.60;;;-2.40;99.90;;;;;;6289385;28;20331;-74
2022/02/23 05:45:13;;;;;;;2.87;2.57;;;-2.40;99.90;;;;;;6290817;28;20269;-73
2022/02/23 05:48:18;;;;;;;4.73;3.07;;;-2.40;99.90;;;;;;6289248;28;20305;-73
2022/02/23 05:51:29;;;;;;;11.90;3.77;;;-2.40;99.90;;;;;;6290216;28;20311;-73
2022/02/23 05:54:35;;;;;;;3.90;2.90;;;-2.30;99.90;;;;;;6289749;28;20298;-73
2022/02/23 05:57:40;;;;;;;2.27;2.17;;;-2.20;99.90;;;;;;6289021;28;20297;-74
2022/02/23 06:00:47;;;;;;;2.20;2.20;;;-2.30;99.90;;;;;;6290245;28;20280;-73
2022/02/23 06:03:53;;;;;;;2.00;2.00;;;-2.30;99.90;;;;;;6289310;28;20298;-73
2022/02/23 06:06:58;;;;;;;2.33;2.10;;;-2.20;99.90;;;;;;6289042;28;20443;-74
2022/02/23 06:10:05;;;;;;;2.17;2.17;;;-2.20;99.90;;;;;;6290203;28;20299;-75
2022/02/23 06:13:11;;;;;;;2.10;2.00;;;-2.10;99.90;;;;;;6290065;28;20300;-74
2022/02/23 06:16:19;;;;;;;1.83;1.83;;;-2.10;99.90;;;;;;6289661;28;20293;-74
2022/02/23 06:19:25;;;;;;;1.70;1.70;;;-2.00;99.90;;;;;;6288399;28;20298;-74
2022/02/23 06:22:30;;;;;;;2.53;2.00;;;-2.00;99.90;;;;;;6288498;28;20302;-74
2022/02/23 06:25:35;;;;;;;2.10;2.00;;;-1.90;99.90;;;;;;6288917;28;20291;-74
2022/02/23 06:28:41;;;;;;;2.33;2.13;;;-1.90;99.90;;;;;;6271611;28;20302;-74
2022/02/23 06:32:02;;;;;;;1.80;1.77;;;-1.80;99.90;;;;;;6289139;28;20297;-74
2022/02/23 06:35:09;;;;;;;2.80;2.00;;;-1.80;99.90;;;;;;6288695;28;20277;-75
2022/02/23 06:38:14;;;;;;;1.93;1.83;;;-1.70;99.90;;;;;;6287786;28;20302;-73
2022/02/23 06:41:22;;;;;;;1.97;1.93;;;-1.70;99.90;;;;;;6288444;28;20277;-74
2022/02/23 06:44:28;;;;;;;1.83;1.83;;;-1.60;99.90;;;;;;6288005;28;20298;-74
2022/02/23 06:47:35;;;;;;;2.03;1.93;;;-1.60;99.90;;;;;;6287664;28;20294;-74
2022/02/23 06:50:40;;;;;;;2.30;2.20;;;-1.60;99.90;;;;;;6288918;28;20294;-75
2022/02/23 06:53:47;;;;;;;1.97;1.87;;;-1.50;99.90;;;;;;6288189;28;20302;-75
2022/02/23 06:56:52;;;;;;;2.50;2.30;;;-1.50;99.90;;;;;;6288577;28;20274;-74
2022/02/23 06:59:57;;;;;;;2.80;2.17;;;-1.50;99.90;;;;;;6287772;28;20277;-74
2022/02/23 07:03:04;;;;;;;2.00;1.90;;;-1.40;99.90;;;;;;6287688;28;20295;-75
2022/02/23 07:06:10;;;;;;;3.03;2.20;;;-1.40;99.90;;;;;;6288400;28;20431;-74
2022/02/23 07:09:15;;;;;;;4.53;1.90;;;-1.30;99.90;;;;;;6287968;28;20298;-74
2022/02/23 07:12:21;;;;;;;3.97;2.27;;;-1.30;99.90;;;;;;6263259;28;20606;-74
2022/02/23 07:15:26;;;;;;;1.83;1.70;;;-1.20;99.90;;;;;;6263388;28;20279;-73
2022/02/23 07:18:33;;;;;;;2.03;1.93;;;-1.20;99.90;;;;;;6262265;28;20303;-74
2022/02/23 07:21:39;;;;;;;1.90;1.80;;;-1.10;99.90;;;;;;6263331;28;20276;-73
2022/02/23 07:24:44;;;;;;;1.73;1.73;;;-1.20;99.90;;;;;;6262104;28;20300;-74
2022/02/23 07:27:49;;;;;;;3.53;2.10;;;-1.10;99.90;;;;;;6261682;28;20318;-74
2022/02/23 07:30:55;;;;;;;3.50;2.33;;;-1.00;99.90;;;;;;6263154;28;20292;-75
2022/02/23 07:34:01;;;;;;;2.63;2.43;;;-0.90;99.90;;;;;;6261662;28;20300;-74
2022/02/23 07:37:07;;;;;;;5.33;2.30;;;-0.90;99.90;;;;;;6262153;28;20275;-74
2022/02/23 07:40:16;;;;;;;2.67;2.40;;;-0.90;99.90;;;;;;6262652;28;20272;-74
2022/02/23 07:43:43;;;;;;;2.53;2.43;;;-0.80;99.90;;;;;;6261650;28;20303;-74
2022/02/23 07:46:48;;;;;;;3.10;2.73;;;-0.90;99.90;;;;;;6262276;28;20293;-74
2022/02/23 07:49:55;;;;;;;5.33;2.33;;;-0.90;99.90;;;;;;6261752;28;20303;-74
2022/02/23 07:53:00;;;;;;;3.43;2.73;;;-0.70;99.90;;;;;;6262161;28;20302;-75
2022/02/23 07:56:06;;;;;;;3.23;3.00;;;-0.60;99.90;;;;;;6262444;28;20275;-75
2022/02/23 07:59:11;;;;;;;3.00;2.90;;;-0.60;99.90;;;;;;6261161;28;20299;-74
2022/02/23 08:02:20;;;;;;;9.73;2.97;;;-0.60;99.90;;;;;;6261167;28;20572;-75
2022/02/23 08:05:27;;;;;;;2.83;2.70;;;-0.50;99.90;;;;;;6261458;28;20459;-74
2022/02/23 08:08:33;;;;;;;3.00;2.83;;;-0.50;99.90;;;;;;6260945;28;20301;-74
2022/02/23 08:11:39;;;;;;;2.97;2.63;;;-0.40;99.90;;;;;;6254257;28;20284;-74
2022/02/23 08:14:44;;;;;;;3.27;2.97;;;-0.40;99.90;;;;;;6261653;28;20299;-75
2022/02/23 08:21:17;;;;;;;2.83;2.70;;;-0.30;99.90;;;;;;6254197;28;20276;-74
2022/02/23 08:24:23;;;;;;;3.17;2.87;;;-0.20;99.90;;;;;;6253409;28;20305;-74
2022/02/23 08:27:30;;;;;;;3.17;2.97;;;-0.20;99.90;;;;;;6261804;28;20296;-74
2022/02/23 08:30:35;;;;;;;3.03;2.93;;;-0.20;99.90;;;;;;6261436;28;20290;-74
2022/02/23 08:33:43;;;;;;;3.10;2.90;;;-0.10;99.90;;;;;;6260868;28;20468;-74
2022/02/23 08:36:50;;;;;;;2.70;2.60;;;-0.10;99.90;;;;;;6261448;28;20277;-74
2022/02/23 08:39:56;;;;;;;2.80;2.70;;;0.00;99.90;;;;;;6261025;28;20279;-75
2022/02/23 08:43:01;;;;;;;3.10;2.90;;;0.00;99.90;;;;;;6261191;28;20297;-74
2022/02/23 08:46:07;;;;;;;3.23;3.10;;;0.10;99.90;;;;;;6261510;28;20293;-74
2022/02/23 08:49:14;;;;;;;3.20;2.90;;;0.20;99.90;;;;;;6261294;28;20600;-74
2022/02/23 08:52:21;;;;;;;2.67;2.57;;;0.20;99.90;;;;;;6260460;28;20308;-75
2022/02/23 08:55:26;;;;;;;3.07;2.77;;;0.20;99.90;;;;;;6261392;28;20561;-74
2022/02/23 08:58:32;;;;;;;2.80;2.70;;;0.30;99.90;;;;;;6260960;28;20302;-74
2022/02/23 09:01:38;;;;;;;4.17;3.10;;;0.40;99.90;;;;;;6245960;28;20271;-75
2022/02/23 09:04:44;;;;;;;3.33;3.03;;;0.40;99.90;;;;;;6265541;28;20298;-74
2022/02/23 09:07:50;;;;;;;3.33;3.03;;;0.30;99.90;;;;;;6265349;28;20298;-74
2022/02/23 09:10:56;;;;;;;2.60;2.50;;;0.30;99.90;;;;;;6266092;28;20269;-74
2022/02/23 09:14:01;;;;;;;3.37;3.13;;;0.40;99.90;;;;;;6264987;28;20305;-74
2022/02/23 09:17:06;;;;;;;2.70;2.50;;;0.50;99.90;;;;;;6265295;28;20273;-75
2022/02/23 09:20:13;;;;;;;2.70;2.50;;;0.60;99.90;;;;;;6265674;28;20272;-74
2022/02/23 09:23:21;;;;;;;2.60;2.50;;;0.60;99.90;;;;;;6277737;28;20465;-74
2022/02/23 09:26:28;;;;;;;2.53;2.43;;;0.70;99.90;;;;;;6289561;28;20560;-74
2022/02/23 09:29:35;;;;;;;3.00;2.57;;;0.70;99.90;;;;;;6289773;28;20297;-74
2022/02/23 09:32:45;;;;;;;6.13;2.57;;;0.80;99.90;;;;;;6289584;28;20307;-75
2022/02/23 09:35:51;;;;;;;2.77;2.57;;;0.80;99.90;;;;;;6290522;28;20274;-74
2022/02/23 09:38:58;;;;;;;2.73;2.53;;;0.80;99.90;;;;;;6289231;28;20294;-74
2022/02/23 09:42:04;;;;;;;2.23;2.10;;;0.90;99.90;;;;;;6288965;28;20455;-75
2022/02/23 09:45:11;;;;;;;2.13;2.03;;;0.90;99.90;;;;;;6290503;28;20273;-75
2022/02/23 09:48:20;;;;;;;2.33;2.33;;;1.00;99.90;;;;;;6289156;28;20297;-74
2022/02/23 09:51:25;;;;;;;3.07;2.87;;;1.20;99.90;;;;;;6290026;28;20275;-74
2022/02/23 09:54:32;;;;;;;2.17;2.17;;;1.20;99.90;;;;;;6288596;28;20302;-75
2022/02/23 09:57:38;;;;;;;2.23;2.13;;;1.30;99.90;;;;;;6289270;28;20298;-75
2022/02/23 10:00:45;;;;;;;2.37;2.37;;;1.40;99.90;;;;;;6289849;28;20276;-74
2022/02/23 10:03:51;;;;;;;2.40;2.30;;;1.50;99.90;;;;;;6288825;28;20291;-74
2022/02/23 10:07:04;;;;;;;2.03;1.97;;;1.60;99.90;;;;;;6289124;28;20275;-75
2022/02/23 10:10:13;;;;;;;2.20;2.10;;;1.60;99.90;;;;;;6282737;28;20261;-74
2022/02/23 10:13:22;;;;;;;2.17;2.07;;;1.80;99.90;;;;;;6254615;28;20490;-74
2022/02/23 10:16:28;;;;;;;2.23;2.00;;;1.70;99.90;;;;;;6265091;28;20276;-74
2022/02/23 10:19:36;;;;;;;2.23;2.00;;;1.70;99.90;;;;;;6263866;28;20299;-74
2022/02/23 10:22:46;;;;;;;2.20;2.07;;;1.80;99.90;;;;;;6270942;28;20311;-74
2022/02/23 10:25:58;;;;;;;1.93;1.90;;;1.80;99.90;;;;;;6288171;28;20558;-74
2022/02/23 10:29:03;;;;;;;2.33;2.23;;;1.70;99.90;;;;;;6288086;28;20319;-74
2022/02/23 10:32:14;;;;;;;3.67;2.03;;;1.80;99.90;;;;;;6286470;28;20513;-74
2022/02/23 10:35:27;;;;;;;2.40;2.30;;;1.90;99.90;;;;;;6280757;28;20307;-74
2022/02/23 10:38:35;;;;;;;1.70;1.70;;;1.90;99.90;;;;;;6288405;28;20302;-74
2022/02/23 10:41:44;;;;;;;1.57;1.53;;;1.90;99.90;;;;;;6288676;28;20273;-74
2022/02/23 10:44:51;;;;;;;2.43;1.80;;;2.00;99.90;;;;;;6287382;28;20319;-74
2022/02/23 10:47:59;;;;;;;1.80;1.70;;;2.10;99.90;;;;;;6287918;28;20299;-74
2022/02/23 10:51:06;;;;;;;1.90;1.80;;;2.30;99.90;;;;;;6287989;28;20445;-74
2022/02/23 10:54:14;;;;;;;2.30;2.10;;;2.20;99.90;;;;;;6287711;28;20299;-74
2022/02/23 10:57:22;;;;;;;1.50;1.40;;;2.30;99.90;;;;;;6288018;28;20298;-74
2022/02/23 11:00:30;;;;;;;2.30;1.83;;;2.10;99.90;;;;;;6288206;28;20274;-74
2022/02/23 11:03:36;;;;;;;1.90;1.80;;;2.20;99.90;;;;;;6287330;28;20294;-74
2022/02/23 11:06:42;;;;;;;1.90;1.80;;;2.20;99.90;;;;;;6287794;28;20278;-75
2022/02/23 11:09:47;;;;;;;1.87;1.77;;;2.30;99.90;;;;;;6287036;28;20427;-75
2022/02/23 11:13:00;;;;;;;1.80;1.70;;;2.30;99.90;;;;;;6287779;28;20295;-76
2022/02/23 11:16:08;;;;;;;1.73;1.63;;;2.30;99.90;;;;;;6270118;28;20292;-75
2022/02/23 11:19:18;;;;;;;1.37;1.30;;;2.30;99.90;;;;;;6286801;28;20292;-75
2022/02/23 11:22:23;;;;;;;2.20;1.50;;;2.40;99.90;;;;;;6287020;28;20299;-75
2022/02/23 11:25:32;;;;;;;1.47;1.47;;;2.40;99.90;;;;;;6287155;28;20279;-75
2022/02/23 11:28:47;;;;;;;2.47;1.70;;;2.40;99.90;;;;;;6287566;28;20296;-75
2022/02/23 11:31:55;;;;;;;1.67;1.53;;;2.40;99.90;;;;;;6286932;28;20267;-75
2022/02/23 11:35:00;;;;;;;1.70;1.60;;;2.50;99.90;;;;;;6286549;28;20295;-75
2022/02/23 11:38:06;;;;;;;1.50;1.40;;;2.50;99.90;;;;;;6286514;28;20578;-75
2022/02/23 11:41:23;;;;;;;1.43;1.43;;;2.50;99.90;;;;;;6286861;28;20266;-75
2022/02/23 11:44:35;;;;;;;3.13;1.50;;;2.50;99.90;;;;;;6286488;28;20306;-75
2022/02/23 11:47:47;;;;;;;1.50;1.50;;;2.50;99.90;;;;;;6286040;28;20334;-74
2022/02/23 11:51:03;;;;;;;1.37;1.33;;;2.60;99.90;;;;;;6286582;28;20273;-74
2022/02/23 11:54:09;;;;;;;1.93;1.83;;;2.60;99.90;;;;;;6286193;28;20595;-75
2022/02/23 11:57:46;;;;;;;1.63;1.20;;;2.60;99.90;;;;;;6286940;28;20294;-75
2022/02/23 12:01:01;;;;;;;1.33;1.27;;;2.60;99.90;;;;;;6287588;28;20309;-75
2022/02/23 12:04:08;;;;;;;1.70;1.53;;;2.70;99.90;;;;;;6286275;28;20315;-75
2022/02/23 12:07:14;;;;;;;1.50;1.50;;;2.80;99.90;;;;;;6285871;28;20271;-74
2022/02/23 12:10:28;;;;;;;1.60;1.60;;;2.80;99.90;;;;;;6278410;28;20263;-74
2022/02/23 12:13:37;;;;;;;1.40;1.40;;;2.70;99.90;;;;;;6261655;28;20296;-75
2022/02/23 12:16:49;;;;;;;1.80;1.70;;;2.60;99.90;;;;;;6262031;28;20579;-74
2022/02/23 12:19:55;;;;;;;1.70;1.60;;;2.60;99.90;;;;;;6260993;28;20447;-75
2022/02/23 12:23:02;;;;;;;1.60;1.50;;;2.50;99.90;;;;;;6267106;28;20478;-74
2022/02/23 12:26:36;;;;;;;1.40;1.40;;;2.50;99.90;;;;;;6286039;28;20581;-75
2022/02/23 12:29:42;;;;;;;1.47;1.47;;;2.50;99.90;;;;;;6286397;28;20476;-75
2022/02/23 12:32:54;;;;;;;4.70;1.80;;;2.40;99.90;;;;;;6285301;28;20586;-75
2022/02/23 12:36:02;;;;;;;1.50;1.50;;;2.50;99.90;;;;;;6288715;28;20310;-75
2022/02/23 12:39:12;;;;;;;2.00;1.33;;;2.60;99.90;;;;;;6294278;28;20585;-74
2022/02/23 12:42:17;;;;;;;2.60;1.80;;;2.50;99.90;;;;;;6285919;28;20291;-75
2022/02/23 12:45:23;;;;;;;1.60;1.50;;;2.60;99.90;;;;;;6293841;28;20459;-76
2022/02/23 12:48:33;;;;;;;1.60;1.60;;;2.70;99.90;;;;;;6275993;28;20307;-76
2022/02/23 12:51:41;;;;;;;1.50;1.40;;;2.60;99.90;;;;;;6294123;28;20295;-76
2022/02/23 12:54:46;;;;;;;1.40;1.40;;;2.70;99.90;;;;;;6293818;28;20598;-76
2022/02/23 12:57:53;;;;;;;2.53;1.40;;;2.80;99.90;;;;;;6293528;28;20471;-75
2022/02/23 13:00:58;;;;;;;1.50;1.40;;;2.80;99.90;;;;;;6294449;28;20269;-75
2022/02/23 13:04:07;;;;;;;2.57;1.53;;;2.80;99.90;;;;;;6293558;28;20446;-76
2022/02/23 13:07:13;;;;;;;3.60;1.57;;;2.80;99.90;;;;;;6276108;28;20290;-76
2022/02/23 13:10:19;;;;;;;1.70;1.60;;;2.80;99.90;;;;;;6285504;28;20262;-76
2022/02/23 13:13:39;;;;;;;1.67;1.53;;;2.80;99.90;;;;;;6269239;28;20469;-76
2022/02/23 13:16:48;;;;;;;2.10;2.00;;;2.90;99.90;;;;;;6269687;28;20290;-76
2022/02/23 13:19:55;;;;;;;1.50;1.50;;;2.80;99.90;;;;;;6269150;28;20297;-76
2022/02/23 13:23:03;;;;;;;1.70;1.70;;;2.80;99.90;;;;;;6275573;28;20301;-76
2022/02/23 13:26:09;;;;;;;1.40;1.40;;;2.80;99.90;;;;;;6293991;28;20533;-76
2022/02/23 13:29:22;;;;;;;1.80;1.23;;;2.70;99.90;;;;;;6293393;28;20323;-76
2022/02/23 13:32:32;;;;;;;2.77;1.60;;;2.60;99.90;;;;;;6293862;28;20290;-76
2022/02/23 13:35:40;;;;;;;1.53;1.53;;;2.70;99.90;;;;;;6294247;28;20294;-76
2022/02/23 13:38:45;;;;;;;1.17;1.17;;;2.70;99.90;;;;;;6293290;28;20292;-76
2022/02/23 13:41:57;;;;;;;1.40;1.40;;;2.80;99.90;;;;;;6294355;28;20270;-76
2022/02/23 13:45:12;;;;;;;1.30;1.30;;;2.90;99.90;;;;;;6293437;28;20277;-76
2022/02/23 13:48:19;;;;;;;1.30;1.30;;;2.90;99.90;;;;;;6289991;28;20296;-76
2022/02/23 13:51:27;;;;;;;2.50;2.30;;;2.90;99.90;;;;;;6289926;28;20457;-76
2022/02/23 13:54:32;;;;;;;4.93;2.47;;;2.90;99.90;;;;;;6289165;28;20295;-76
2022/02/23 13:57:43;;;;;;;8.90;3.60;;;2.80;99.90;;;;;;6289403;28;20456;-76
2022/02/23 14:00:52;;;;;;;10.63;3.47;;;2.90;99.90;;;;;;6289992;28;20456;-75
2022/02/23 14:03:57;;;;;;;15.97;3.67;;;2.90;99.90;;;;;;6288645;28;20291;-75
2022/02/23 14:07:04;;;;;;;4.53;2.80;;;2.80;99.90;;;;;;6288894;28;20572;-76
2022/02/23 14:10:25;;;;;;;2.37;2.17;;;2.70;99.90;;;;;;6289277;28;20265;-76
2022/02/23 14:13:36;;;;;;;2.23;1.90;;;2.70;99.90;;;;;;6288663;28;20292;-76
2022/02/23 14:16:45;;;;;;;3.07;2.00;;;2.70;99.90;;;;;;6289478;28;20580;-75
2022/02/23 14:19:52;;;;;;;1.73;1.57;;;2.60;99.90;;;;;;6288960;28;20295;-76
2022/02/23 14:23:00;;;;;;;2.63;2.43;;;2.60;99.90;;;;;;6287925;28;20299;-76
2022/02/23 14:26:09;;;;;;;2.07;1.90;;;2.60;99.90;;;;;;6288608;28;20277;-75
2022/02/23 14:29:15;;;;;;;1.40;1.40;;;2.40;99.90;;;;;;6288371;28;20612;-76
2022/02/23 14:32:25;;;;;;;1.50;1.50;;;2.50;99.90;;;;;;6281240;28;21285;-76
2022/02/23 14:35:31;;;;;;;1.87;1.87;;;2.30;99.90;;;;;;6289066;28;20275;-76
2022/02/23 14:38:44;;;;;;;2.17;1.83;;;2.40;99.90;;;;;;6288612;28;20304;-76
2022/02/23 14:41:50;;;;;;;2.10;1.50;;;2.40;99.90;;;;;;6287783;28;20271;-76
2022/02/23 14:44:56;;;;;;;1.70;1.60;;;2.40;99.90;;;;;;6287787;28;20306;-76
2022/02/23 14:48:01;;;;;;;1.50;1.40;;;2.40;99.90;;;;;;6288724;28;20295;-76
2022/02/23 14:51:07;;;;;;;1.80;1.70;;;2.30;99.90;;;;;;6288942;28;20377;-77
2022/02/23 14:54:14;;;;;;;3.57;1.83;;;2.30;99.90;;;;;;6288670;28;20296;-76
2022/02/23 14:57:20;;;;;;;2.73;2.03;;;2.30;99.90;;;;;;6287455;28;20302;-75
2022/02/23 15:00:26;;;;;;;2.33;2.23;;;2.40;99.90;;;;;;6288224;28;20548;-76
2022/02/23 15:03:32;;;;;;;4.00;1.80;;;2.40;99.90;;;;;;6287790;28;20305;-75
2022/02/23 15:06:37;;;;;;;1.60;1.60;;;2.40;99.90;;;;;;6288146;28;20276;-75
2022/02/23 15:09:46;;;;;;;2.00;1.90;;;2.40;99.90;;;;;;6285518;28;20568;-76
2022/02/23 15:12:52;;;;;;;1.77;1.70;;;2.40;99.90;;;;;;6284683;28;20304;-75
